KIAD/IAD METAR and TAF weather

Enter ICAO airport designator
Station Type Date Time Source
KIAD METAR 2022/06/30 11:52 UTC NOAA

KIAD 301152Z 33004KT 10SM FEW250 22/17 A3024 RMK AO2 SLP238 60000 T02220167 10222 20167 53012


Station Type Date Time Source
KIAD Decoded METAR 2022/06/30 11:52 UTC NOAA

DULLES INTERNATIONAL AIRPORT, VA, United States (KIAD) 38-56N 077-27W 93M
Jun 30, 2022 - 07:52 AM EDT / 2022.06.30 1152 UTC
Wind: from the NNW (330 degrees) at 5 MPH (4 KT):0
Visibility: 10 mile(s):0
Sky conditions: mostly clear
Temperature: 72.0 F (22.2 C)
Dew Point: 62.1 F (16.7 C)
Relative Humidity: 71%
Pressure (altimeter): 30.24 in. Hg (1024 hPa)
Pressure tendency: 0.04 inches (1.2 hPa) higher than three hours ago
ob: KIAD 301152Z 33004KT 10SM FEW250 22/17 A3024 RMK AO2 SLP238 60000 T02220167 10222 20167 53012
cycle: 12

Station Type Date Time Source
KIAD TAF 2022/06/30 12:39 UTC NOAA

TAF KIAD 301137Z 3012/0118 31004KT P6SM FEW250
FM301800 18004KT P6SM SKC
FM011500 21007KT P6SM FEW250

Example: see airport list